sensor_id;sensor_type;location;lat;lon;timestamp;P1;durP1;ratioP1;P2;durP2;ratioP2
21761;SDS011;11203;50.870;20.682;2022-11-02T00:00:28;62.92;;;39.67;;
21761;SDS011;11203;50.870;20.682;2022-11-02T00:03:15;62.15;;;40.78;;
21761;SDS011;11203;50.870;20.682;2022-11-02T00:05:41;77.15;;;48.08;;
21761;SDS011;11203;50.870;20.682;2022-11-02T00:08:07;80.18;;;46.60;;
21761;SDS011;11203;50.870;20.682;2022-11-02T00:10:33;70.35;;;44.03;;
21761;SDS011;11203;50.870;20.682;2022-11-02T00:13:02;65.47;;;39.22;;
21761;SDS011;11203;50.870;20.682;2022-11-02T00:15:29;59.63;;;37.38;;
21761;SDS011;11203;50.870;20.682;2022-11-02T00:18:00;62.08;;;38.35;;
21761;SDS011;11203;50.870;20.682;2022-11-02T00:20:34;64.18;;;36.05;;
21761;SDS011;11203;50.870;20.682;2022-11-02T00:23:04;58.97;;;37.67;;
21761;SDS011;11203;50.870;20.682;2022-11-02T00:25:31;52.88;;;33.50;;
21761;SDS011;11203;50.870;20.682;2022-11-02T00:27:58;48.20;;;31.52;;
21761;SDS011;11203;50.870;20.682;2022-11-02T00:30:24;52.65;;;32.15;;
21761;SDS011;11203;50.870;20.682;2022-11-02T00:32:50;54.53;;;34.67;;
21761;SDS011;11203;50.870;20.682;2022-11-02T00:35:16;51.60;;;32.35;;
21761;SDS011;11203;50.870;20.682;2022-11-02T00:37:42;45.05;;;29.85;;
21761;SDS011;11203;50.870;20.682;2022-11-02T00:40:09;52.40;;;30.38;;
21761;SDS011;11203;50.870;20.682;2022-11-02T00:42:35;48.67;;;29.15;;
21761;SDS011;11203;50.870;20.682;2022-11-02T00:45:01;51.00;;;31.90;;
21761;SDS011;11203;50.870;20.682;2022-11-02T00:47:27;51.95;;;31.65;;
21761;SDS011;11203;50.870;20.682;2022-11-02T00:49:53;43.10;;;29.10;;
21761;SDS011;11203;50.870;20.682;2022-11-02T00:52:19;46.28;;;29.27;;
21761;SDS011;11203;50.870;20.682;2022-11-02T00:54:46;48.85;;;30.55;;
21761;SDS011;11203;50.870;20.682;2022-11-02T00:57:12;48.95;;;31.67;;
21761;SDS011;11203;50.870;20.682;2022-11-02T00:59:38;52.53;;;31.92;;
21761;SDS011;11203;50.870;20.682;2022-11-02T01:02:03;53.58;;;33.25;;
21761;SDS011;11203;50.870;20.682;2022-11-02T01:04:30;57.60;;;36.92;;
21761;SDS011;11203;50.870;20.682;2022-11-02T01:06:56;62.38;;;38.97;;
21761;SDS011;11203;50.870;20.682;2022-11-02T01:09:22;62.88;;;39.28;;
21761;SDS011;11203;50.870;20.682;2022-11-02T01:11:49;68.07;;;40.03;;
21761;SDS011;11203;50.870;20.682;2022-11-02T01:14:15;64.00;;;39.90;;
21761;SDS011;11203;50.870;20.682;2022-11-02T01:16:41;61.38;;;37.42;;
21761;SDS011;11203;50.870;20.682;2022-11-02T01:19:09;61.78;;;35.80;;
21761;SDS011;11203;50.870;20.682;2022-11-02T01:21:35;61.38;;;37.60;;
21761;SDS011;11203;50.870;20.682;2022-11-02T01:24:01;53.65;;;35.95;;
21761;SDS011;11203;50.870;20.682;2022-11-02T01:26:27;53.22;;;34.33;;
21761;SDS011;11203;50.870;20.682;2022-11-02T01:28:54;55.65;;;34.88;;
21761;SDS011;11203;50.870;20.682;2022-11-02T01:31:20;51.58;;;33.45;;
21761;SDS011;11203;50.870;20.682;2022-11-02T01:33:46;53.15;;;32.63;;
21761;SDS011;11203;50.870;20.682;2022-11-02T01:36:14;52.58;;;34.40;;
21761;SDS011;11203;50.870;20.682;2022-11-02T01:38:45;57.92;;;34.70;;
21761;SDS011;11203;50.870;20.682;2022-11-02T01:41:13;57.65;;;36.35;;
21761;SDS011;11203;50.870;20.682;2022-11-02T01:43:41;61.33;;;37.38;;
21761;SDS011;11203;50.870;20.682;2022-11-02T01:48:36;51.95;;;32.17;;
21761;SDS011;11203;50.870;20.682;2022-11-02T01:51:19;53.70;;;32.22;;
21761;SDS011;11203;50.870;20.682;2022-11-02T01:53:53;47.92;;;32.42;;
21761;SDS011;11203;50.870;20.682;2022-11-02T01:56:25;48.03;;;32.28;;
21761;SDS011;11203;50.870;20.682;2022-11-02T01:58:57;53.40;;;32.22;;
21761;SDS011;11203;50.870;20.682;2022-11-02T02:01:28;51.47;;;33.67;;
21761;SDS011;11203;50.870;20.682;2022-11-02T02:03:55;50.45;;;34.90;;
21761;SDS011;11203;50.870;20.682;2022-11-02T02:06:22;60.70;;;38.28;;
21761;SDS011;11203;50.870;20.682;2022-11-02T02:08:52;65.97;;;38.90;;
21761;SDS011;11203;50.870;20.682;2022-11-02T02:14:05;47.88;;;30.52;;
21761;SDS011;11203;50.870;20.682;2022-11-02T02:31:05;52.65;;;34.92;;
21761;SDS011;11203;50.870;20.682;2022-11-02T02:37:04;49.50;;;32.53;;
21761;SDS011;11203;50.870;20.682;2022-11-02T02:39:49;46.80;;;29.95;;
21761;SDS011;11203;50.870;20.682;2022-11-02T02:42:33;39.40;;;25.90;;
21761;SDS011;11203;50.870;20.682;2022-11-02T02:45:22;40.50;;;27.70;;
21761;SDS011;11203;50.870;20.682;2022-11-02T02:48:00;38.50;;;25.67;;
21761;SDS011;11203;50.870;20.682;2022-11-02T02:50:38;41.17;;;26.77;;
21761;SDS011;11203;50.870;20.682;2022-11-02T02:53:40;37.80;;;26.15;;
21761;SDS011;11203;50.870;20.682;2022-11-02T02:56:14;37.78;;;23.88;;
21761;SDS011;11203;50.870;20.682;2022-11-02T02:58:46;37.60;;;24.25;;
21761;SDS011;11203;50.870;20.682;2022-11-02T03:01:18;39.55;;;25.65;;
21761;SDS011;11203;50.870;20.682;2022-11-02T03:03:44;33.65;;;22.58;;
21761;SDS011;11203;50.870;20.682;2022-11-02T03:08:47;40.50;;;24.38;;
21761;SDS011;11203;50.870;20.682;2022-11-02T03:11:22;35.90;;;23.90;;
21761;SDS011;11203;50.870;20.682;2022-11-02T03:13:53;35.63;;;24.10;;
21761;SDS011;11203;50.870;20.682;2022-11-02T03:22:33;38.80;;;24.35;;
21761;SDS011;11203;50.870;20.682;2022-11-02T03:25:19;39.30;;;25.58;;
21761;SDS011;11203;50.870;20.682;2022-11-02T03:31:11;36.60;;;23.15;;
21761;SDS011;11203;50.870;20.682;2022-11-02T03:37:23;42.05;;;25.13;;
21761;SDS011;11203;50.870;20.682;2022-11-02T03:42:36;43.03;;;26.52;;
21761;SDS011;11203;50.870;20.682;2022-11-02T03:45:06;39.53;;;26.02;;
21761;SDS011;11203;50.870;20.682;2022-11-02T03:47:37;36.85;;;25.27;;
21761;SDS011;11203;50.870;20.682;2022-11-02T03:50:04;41.80;;;26.58;;
21761;SDS011;11203;50.870;20.682;2022-11-02T03:52:34;39.03;;;26.20;;
21761;SDS011;11203;50.870;20.682;2022-11-02T03:55:05;46.75;;;26.40;;
21761;SDS011;11203;50.870;20.682;2022-11-02T03:57:41;37.78;;;25.73;;
21761;SDS011;11203;50.870;20.682;2022-11-02T04:00:13;37.35;;;24.20;;
21761;SDS011;11203;50.870;20.682;2022-11-02T04:02:48;39.33;;;24.42;;
21761;SDS011;11203;50.870;20.682;2022-11-02T04:05:19;39.15;;;22.92;;
21761;SDS011;11203;50.870;20.682;2022-11-02T04:07:52;38.05;;;23.88;;
21761;SDS011;11203;50.870;20.682;2022-11-02T04:10:38;34.83;;;24.10;;
21761;SDS011;11203;50.870;20.682;2022-11-02T04:13:24;41.17;;;25.70;;
21761;SDS011;11203;50.870;20.682;2022-11-02T04:16:08;43.72;;;24.90;;
21761;SDS011;11203;50.870;20.682;2022-11-02T04:18:34;37.40;;;25.25;;
21761;SDS011;11203;50.870;20.682;2022-11-02T04:21:19;42.65;;;25.20;;
21761;SDS011;11203;50.870;20.682;2022-11-02T04:23:45;35.47;;;21.75;;
21761;SDS011;11203;50.870;20.682;2022-11-02T04:26:30;40.22;;;25.05;;
21761;SDS011;11203;50.870;20.682;2022-11-02T04:28:56;40.30;;;24.92;;
21761;SDS011;11203;50.870;20.682;2022-11-02T04:31:22;42.53;;;24.73;;
21761;SDS011;11203;50.870;20.682;2022-11-02T04:33:48;39.72;;;24.58;;
21761;SDS011;11203;50.870;20.682;2022-11-02T04:36:14;40.00;;;25.63;;
21761;SDS011;11203;50.870;20.682;2022-11-02T04:38:41;36.67;;;23.05;;
21761;SDS011;11203;50.870;20.682;2022-11-02T04:41:08;37.67;;;24.60;;
21761;SDS011;11203;50.870;20.682;2022-11-02T04:43:58;39.67;;;25.08;;
21761;SDS011;11203;50.870;20.682;2022-11-02T04:46:25;36.03;;;21.90;;
21761;SDS011;11203;50.870;20.682;2022-11-02T04:48:54;38.78;;;24.55;;
21761;SDS011;11203;50.870;20.682;2022-11-02T04:51:21;39.40;;;24.15;;
21761;SDS011;11203;50.870;20.682;2022-11-02T04:53:50;39.10;;;24.05;;
21761;SDS011;11203;50.870;20.682;2022-11-02T04:56:18;36.08;;;22.05;;
21761;SDS011;11203;50.870;20.682;2022-11-02T04:58:51;37.10;;;24.20;;
21761;SDS011;11203;50.870;20.682;2022-11-02T05:01:22;42.72;;;24.85;;
21761;SDS011;11203;50.870;20.682;2022-11-02T05:03:52;39.45;;;24.65;;
21761;SDS011;11203;50.870;20.682;2022-11-02T05:06:20;41.40;;;25.08;;
21761;SDS011;11203;50.870;20.682;2022-11-02T05:08:47;46.30;;;26.90;;
21761;SDS011;11203;50.870;20.682;2022-11-02T05:11:13;47.47;;;29.15;;
21761;SDS011;11203;50.870;20.682;2022-11-02T05:13:39;47.47;;;28.35;;
21761;SDS011;11203;50.870;20.682;2022-11-02T05:16:07;58.30;;;35.65;;
21761;SDS011;11203;50.870;20.682;2022-11-02T05:18:37;59.65;;;35.65;;
21761;SDS011;11203;50.870;20.682;2022-11-02T05:21:03;57.70;;;34.38;;
21761;SDS011;11203;50.870;20.682;2022-11-02T05:23:30;47.35;;;29.92;;
21761;SDS011;11203;50.870;20.682;2022-11-02T05:25:57;46.33;;;27.90;;
21761;SDS011;11203;50.870;20.682;2022-11-02T05:28:26;45.28;;;27.02;;
21761;SDS011;11203;50.870;20.682;2022-11-02T05:30:53;38.28;;;26.08;;
21761;SDS011;11203;50.870;20.682;2022-11-02T05:33:20;45.03;;;27.02;;
21761;SDS011;11203;50.870;20.682;2022-11-02T05:35:46;45.35;;;27.10;;
21761;SDS011;11203;50.870;20.682;2022-11-02T05:38:12;48.15;;;26.38;;
21761;SDS011;11203;50.870;20.682;2022-11-02T05:40:38;45.85;;;25.77;;
21761;SDS011;11203;50.870;20.682;2022-11-02T05:43:05;49.25;;;26.88;;
21761;SDS011;11203;50.870;20.682;2022-11-02T05:45:33;50.65;;;29.38;;
21761;SDS011;11203;50.870;20.682;2022-11-02T05:48:00;45.97;;;27.00;;
21761;SDS011;11203;50.870;20.682;2022-11-02T05:50:28;44.42;;;26.98;;
21761;SDS011;11203;50.870;20.682;2022-11-02T05:52:55;47.58;;;28.98;;
21761;SDS011;11203;50.870;20.682;2022-11-02T05:55:21;45.70;;;28.70;;
21761;SDS011;11203;50.870;20.682;2022-11-02T05:57:53;45.65;;;29.88;;
21761;SDS011;11203;50.870;20.682;2022-11-02T06:00:20;46.58;;;28.02;;
21761;SDS011;11203;50.870;20.682;2022-11-02T06:02:52;49.80;;;30.40;;
21761;SDS011;11203;50.870;20.682;2022-11-02T06:05:21;49.58;;;29.73;;
21761;SDS011;11203;50.870;20.682;2022-11-02T06:07:48;52.10;;;31.73;;
21761;SDS011;11203;50.870;20.682;2022-11-02T06:10:14;52.90;;;32.28;;
21761;SDS011;11203;50.870;20.682;2022-11-02T06:12:40;49.97;;;28.85;;
21761;SDS011;11203;50.870;20.682;2022-11-02T06:15:07;45.35;;;25.88;;
21761;SDS011;11203;50.870;20.682;2022-11-02T06:17:40;50.25;;;27.95;;
21761;SDS011;11203;50.870;20.682;2022-11-02T06:20:06;57.08;;;30.63;;
21761;SDS011;11203;50.870;20.682;2022-11-02T06:22:40;53.47;;;28.88;;
21761;SDS011;11203;50.870;20.682;2022-11-02T06:25:06;60.22;;;29.52;;
21761;SDS011;11203;50.870;20.682;2022-11-02T06:27:34;56.17;;;32.35;;
21761;SDS011;11203;50.870;20.682;2022-11-02T06:30:00;61.22;;;29.92;;
21761;SDS011;11203;50.870;20.682;2022-11-02T06:32:27;61.47;;;31.38;;
21761;SDS011;11203;50.870;20.682;2022-11-02T06:34:53;55.90;;;30.58;;
21761;SDS011;11203;50.870;20.682;2022-11-02T06:37:19;51.00;;;27.50;;
21761;SDS011;11203;50.870;20.682;2022-11-02T06:39:46;59.50;;;33.85;;
21761;SDS011;11203;50.870;20.682;2022-11-02T06:42:13;38.33;;;19.15;;
21761;SDS011;11203;50.870;20.682;2022-11-02T06:44:39;46.97;;;26.92;;
21761;SDS011;11203;50.870;20.682;2022-11-02T06:47:05;51.42;;;29.70;;
21761;SDS011;11203;50.870;20.682;2022-11-02T06:49:31;53.78;;;30.63;;
21761;SDS011;11203;50.870;20.682;2022-11-02T06:51:57;53.97;;;29.27;;
21761;SDS011;11203;50.870;20.682;2022-11-02T06:54:23;52.63;;;29.60;;
21761;SDS011;11203;50.870;20.682;2022-11-02T06:56:49;52.60;;;30.10;;
21761;SDS011;11203;50.870;20.682;2022-11-02T06:59:15;51.13;;;27.42;;
21761;SDS011;11203;50.870;20.682;2022-11-02T07:01:41;52.22;;;29.55;;
21761;SDS011;11203;50.870;20.682;2022-11-02T07:04:07;55.72;;;30.08;;
21761;SDS011;11203;50.870;20.682;2022-11-02T07:06:33;50.60;;;28.23;;
21761;SDS011;11203;50.870;20.682;2022-11-02T07:08:59;56.35;;;29.88;;
21761;SDS011;11203;50.870;20.682;2022-11-02T07:11:25;58.33;;;32.67;;
21761;SDS011;11203;50.870;20.682;2022-11-02T07:13:51;62.47;;;29.13;;
21761;SDS011;11203;50.870;20.682;2022-11-02T07:16:18;57.22;;;31.05;;
21761;SDS011;11203;50.870;20.682;2022-11-02T07:18:44;50.63;;;29.33;;
21761;SDS011;11203;50.870;20.682;2022-11-02T07:21:10;58.47;;;32.97;;
21761;SDS011;11203;50.870;20.682;2022-11-02T07:23:36;62.00;;;33.45;;
21761;SDS011;11203;50.870;20.682;2022-11-02T07:26:02;53.50;;;31.50;;
21761;SDS011;11203;50.870;20.682;2022-11-02T07:28:29;63.42;;;33.13;;
21761;SDS011;11203;50.870;20.682;2022-11-02T07:30:55;57.45;;;33.53;;
21761;SDS011;11203;50.870;20.682;2022-11-02T07:33:21;55.65;;;31.30;;
21761;SDS011;11203;50.870;20.682;2022-11-02T07:35:47;62.60;;;34.80;;
21761;SDS011;11203;50.870;20.682;2022-11-02T07:38:13;51.45;;;30.15;;
21761;SDS011;11203;50.870;20.682;2022-11-02T07:40:39;51.33;;;30.70;;
21761;SDS011;11203;50.870;20.682;2022-11-02T07:43:06;52.42;;;29.83;;
21761;SDS011;11203;50.870;20.682;2022-11-02T07:45:32;50.03;;;30.77;;
21761;SDS011;11203;50.870;20.682;2022-11-02T07:47:58;50.85;;;30.42;;
21761;SDS011;11203;50.870;20.682;2022-11-02T07:50:24;57.70;;;33.83;;
21761;SDS011;11203;50.870;20.682;2022-11-02T07:52:55;60.85;;;36.63;;
21761;SDS011;11203;50.870;20.682;2022-11-02T07:55:24;62.03;;;36.33;;
21761;SDS011;11203;50.870;20.682;2022-11-02T08:00:22;61.92;;;39.55;;
21761;SDS011;11203;50.870;20.682;2022-11-02T08:02:57;70.15;;;39.13;;
21761;SDS011;11203;50.870;20.682;2022-11-02T08:05:26;65.15;;;42.20;;
21761;SDS011;11203;50.870;20.682;2022-11-02T08:10:29;74.63;;;40.85;;
21761;SDS011;11203;50.870;20.682;2022-11-02T08:12:56;77.65;;;45.47;;
21761;SDS011;11203;50.870;20.682;2022-11-02T08:15:23;57.67;;;34.40;;
21761;SDS011;11203;50.870;20.682;2022-11-02T08:18:06;71.40;;;39.30;;
21761;SDS011;11203;50.870;20.682;2022-11-02T08:20:42;34.55;;;21.02;;
21761;SDS011;11203;50.870;20.682;2022-11-02T08:23:12;48.40;;;28.52;;
21761;SDS011;11203;50.870;20.682;2022-11-02T08:25:40;48.63;;;26.30;;
21761;SDS011;11203;50.870;20.682;2022-11-02T08:28:11;40.95;;;22.58;;
21761;SDS011;11203;50.870;20.682;2022-11-02T08:30:40;59.25;;;31.13;;
21761;SDS011;11203;50.870;20.682;2022-11-02T08:33:09;41.28;;;21.20;;
21761;SDS011;11203;50.870;20.682;2022-11-02T08:35:40;39.30;;;20.98;;
21761;SDS011;11203;50.870;20.682;2022-11-02T08:38:08;33.63;;;18.05;;
21761;SDS011;11203;50.870;20.682;2022-11-02T08:40:34;39.70;;;22.90;;
21761;SDS011;11203;50.870;20.682;2022-11-02T08:43:02;44.83;;;25.35;;
21761;SDS011;11203;50.870;20.682;2022-11-02T08:45:34;49.65;;;26.55;;
21761;SDS011;11203;50.870;20.682;2022-11-02T08:48:03;39.80;;;23.58;;
21761;SDS011;11203;50.870;20.682;2022-11-02T08:50:30;32.90;;;19.42;;
21761;SDS011;11203;50.870;20.682;2022-11-02T08:52:56;39.63;;;22.33;;
21761;SDS011;11203;50.870;20.682;2022-11-02T08:55:22;41.97;;;24.80;;
21761;SDS011;11203;50.870;20.682;2022-11-02T08:57:52;48.65;;;28.52;;
21761;SDS011;11203;50.870;20.682;2022-11-02T09:00:24;48.80;;;29.48;;
21761;SDS011;11203;50.870;20.682;2022-11-02T09:03:02;51.47;;;30.80;;
21761;SDS011;11203;50.870;20.682;2022-11-02T09:05:43;63.00;;;35.70;;
21761;SDS011;11203;50.870;20.682;2022-11-02T09:08:14;45.03;;;28.98;;
21761;SDS011;11203;50.870;20.682;2022-11-02T09:10:43;45.92;;;26.58;;
21761;SDS011;11203;50.870;20.682;2022-11-02T09:13:13;46.53;;;26.23;;
21761;SDS011;11203;50.870;20.682;2022-11-02T09:15:40;47.85;;;28.13;;
21761;SDS011;11203;50.870;20.682;2022-11-02T09:18:07;52.97;;;27.77;;
21761;SDS011;11203;50.870;20.682;2022-11-02T09:20:33;45.42;;;23.27;;
21761;SDS011;11203;50.870;20.682;2022-11-02T09:23:00;44.08;;;23.58;;
21761;SDS011;11203;50.870;20.682;2022-11-02T09:25:26;49.45;;;26.60;;
21761;SDS011;11203;50.870;20.682;2022-11-02T09:27:53;47.95;;;26.05;;
21761;SDS011;11203;50.870;20.682;2022-11-02T09:30:21;45.38;;;25.58;;
21761;SDS011;11203;50.870;20.682;2022-11-02T09:32:55;50.17;;;25.92;;
21761;SDS011;11203;50.870;20.682;2022-11-02T09:35:30;52.35;;;26.02;;
21761;SDS011;11203;50.870;20.682;2022-11-02T09:37:59;46.53;;;25.70;;
21761;SDS011;11203;50.870;20.682;2022-11-02T09:48:52;47.03;;;28.92;;
21761;SDS011;11203;50.870;20.682;2022-11-02T09:51:36;54.33;;;30.95;;
21761;SDS011;11203;50.870;20.682;2022-11-02T09:54:19;44.92;;;25.85;;
21761;SDS011;11203;50.870;20.682;2022-11-02T09:56:46;44.60;;;26.52;;
21761;SDS011;11203;50.870;20.682;2022-11-02T09:59:19;48.25;;;26.17;;
21761;SDS011;11203;50.870;20.682;2022-11-02T10:07:25;45.80;;;27.75;;
21761;SDS011;11203;50.870;20.682;2022-11-02T10:10:33;44.72;;;26.75;;
21761;SDS011;11203;50.870;20.682;2022-11-02T10:16:05;39.60;;;24.98;;
21761;SDS011;11203;50.870;20.682;2022-11-02T10:18:43;43.28;;;27.33;;
21761;SDS011;11203;50.870;20.682;2022-11-02T10:21:20;46.40;;;28.67;;
21761;SDS011;11203;50.870;20.682;2022-11-02T10:23:56;42.60;;;25.35;;
21761;SDS011;11203;50.870;20.682;2022-11-02T10:26:46;34.10;;;22.38;;
21761;SDS011;11203;50.870;20.682;2022-11-02T10:32:11;35.88;;;21.73;;
21761;SDS011;11203;50.870;20.682;2022-11-02T10:34:39;37.38;;;24.00;;
21761;SDS011;11203;50.870;20.682;2022-11-02T10:51:32;39.25;;;24.85;;
21761;SDS011;11203;50.870;20.682;2022-11-02T10:53:58;38.40;;;27.90;;
21761;SDS011;11203;50.870;20.682;2022-11-02T10:56:31;33.92;;;21.63;;
21761;SDS011;11203;50.870;20.682;2022-11-02T11:01:26;33.42;;;23.15;;
21761;SDS011;11203;50.870;20.682;2022-11-02T11:04:04;36.33;;;23.88;;
21761;SDS011;11203;50.870;20.682;2022-11-02T11:06:45;31.15;;;22.10;;
21761;SDS011;11203;50.870;20.682;2022-11-02T11:12:02;33.20;;;22.70;;
21761;SDS011;11203;50.870;20.682;2022-11-02T11:14:35;34.28;;;23.73;;
21761;SDS011;11203;50.870;20.682;2022-11-02T11:17:17;31.92;;;23.25;;
21761;SDS011;11203;50.870;20.682;2022-11-02T11:19:49;28.17;;;20.10;;
21761;SDS011;11203;50.870;20.682;2022-11-02T11:22:31;24.02;;;18.38;;
21761;SDS011;11203;50.870;20.682;2022-11-02T11:27:51;27.27;;;19.63;;
21761;SDS011;11203;50.870;20.682;2022-11-02T11:32:58;25.75;;;18.55;;
21761;SDS011;11203;50.870;20.682;2022-11-02T11:35:27;22.85;;;15.05;;
21761;SDS011;11203;50.870;20.682;2022-11-02T11:37:58;19.50;;;13.80;;
21761;SDS011;11203;50.870;20.682;2022-11-02T11:40:37;20.70;;;13.63;;
21761;SDS011;11203;50.870;20.682;2022-11-02T11:43:09;16.05;;;11.93;;
21761;SDS011;11203;50.870;20.682;2022-11-02T11:45:39;17.60;;;11.10;;
21761;SDS011;11203;50.870;20.682;2022-11-02T11:50:56;17.70;;;11.18;;
21761;SDS011;11203;50.870;20.682;2022-11-02T11:53:24;15.65;;;9.52;;
21761;SDS011;11203;50.870;20.682;2022-11-02T11:56:00;24.75;;;12.48;;
21761;SDS011;11203;50.870;20.682;2022-11-02T11:58:26;18.23;;;10.65;;
21761;SDS011;11203;50.870;20.682;2022-11-02T12:24:10;10.80;;;6.60;;
21761;SDS011;11203;50.870;20.682;2022-11-02T12:30:22;9.45;;;5.72;;
21761;SDS011;11203;50.870;20.682;2022-11-02T12:33:07;12.25;;;6.95;;
21761;SDS011;11203;50.870;20.682;2022-11-02T12:36:08;10.85;;;6.03;;
21761;SDS011;11203;50.870;20.682;2022-11-02T12:41:49;11.00;;;5.78;;
21761;SDS011;11203;50.870;20.682;2022-11-02T12:56:02;5.95;;;4.45;;
21761;SDS011;11203;50.870;20.682;2022-11-02T12:58:33;7.30;;;5.18;;
21761;SDS011;11203;50.870;20.682;2022-11-02T13:01:17;7.07;;;5.43;;
21761;SDS011;11203;50.870;20.682;2022-11-02T13:04:37;11.68;;;6.20;;
21761;SDS011;11203;50.870;20.682;2022-11-02T13:07:18;7.60;;;4.40;;
21761;SDS011;11203;50.870;20.682;2022-11-02T13:12:43;9.57;;;6.65;;
21761;SDS011;11203;50.870;20.682;2022-11-02T13:15:15;10.50;;;6.28;;
21761;SDS011;11203;50.870;20.682;2022-11-02T13:17:53;12.38;;;7.45;;
21761;SDS011;11203;50.870;20.682;2022-11-02T13:23:13;7.05;;;5.18;;
21761;SDS011;11203;50.870;20.682;2022-11-02T13:25:55;10.65;;;5.80;;
21761;SDS011;11203;50.870;20.682;2022-11-02T13:31:17;10.35;;;6.60;;
21761;SDS011;11203;50.870;20.682;2022-11-02T13:33:57;10.23;;;5.63;;
21761;SDS011;11203;50.870;20.682;2022-11-02T13:36:28;8.23;;;5.72;;
21761;SDS011;11203;50.870;20.682;2022-11-02T13:47:01;7.55;;;5.70;;
21761;SDS011;11203;50.870;20.682;2022-11-02T13:49:42;5.57;;;4.13;;
21761;SDS011;11203;50.870;20.682;2022-11-02T13:52:15;8.63;;;5.05;;
21761;SDS011;11203;50.870;20.682;2022-11-02T13:54:50;9.48;;;6.25;;
21761;SDS011;11203;50.870;20.682;2022-11-02T14:03:20;8.63;;;5.32;;
21761;SDS011;11203;50.870;20.682;2022-11-02T14:05:57;11.18;;;4.90;;
21761;SDS011;11203;50.870;20.682;2022-11-02T14:08:39;11.73;;;5.00;;
21761;SDS011;11203;50.870;20.682;2022-11-02T14:27:26;11.02;;;5.13;;
21761;SDS011;11203;50.870;20.682;2022-11-02T14:29:53;12.75;;;9.48;;
21761;SDS011;11203;50.870;20.682;2022-11-02T14:43:57;63.45;;;44.33;;
21761;SDS011;11203;50.870;20.682;2022-11-02T14:49:33;78.68;;;50.78;;
21761;SDS011;11203;50.870;20.682;2022-11-02T14:52:07;95.88;;;56.55;;
21761;SDS011;11203;50.870;20.682;2022-11-02T14:55:07;35.03;;;22.23;;
21761;SDS011;11203;50.870;20.682;2022-11-02T15:03:04;22.10;;;11.55;;
21761;SDS011;11203;50.870;20.682;2022-11-02T15:05:58;18.25;;;10.45;;
21761;SDS011;11203;50.870;20.682;2022-11-02T15:08:51;68.28;;;41.75;;
21761;SDS011;11203;50.870;20.682;2022-11-02T15:11:42;85.25;;;53.63;;
21761;SDS011;11203;50.870;20.682;2022-11-02T15:17:00;123.22;;;77.40;;
21761;SDS011;11203;50.870;20.682;2022-11-02T15:19:51;74.10;;;46.13;;
21761;SDS011;11203;50.870;20.682;2022-11-02T15:22:40;81.70;;;48.25;;
21761;SDS011;11203;50.870;20.682;2022-11-02T15:27:33;43.42;;;24.85;;
21761;SDS011;11203;50.870;20.682;2022-11-02T15:30:02;40.50;;;22.90;;
21761;SDS011;11203;50.870;20.682;2022-11-02T15:32:33;15.95;;;10.25;;
21761;SDS011;11203;50.870;20.682;2022-11-02T15:35:05;15.23;;;9.07;;
21761;SDS011;11203;50.870;20.682;2022-11-02T15:37:45;18.85;;;9.95;;
21761;SDS011;11203;50.870;20.682;2022-11-02T15:40:19;19.90;;;11.27;;
21761;SDS011;11203;50.870;20.682;2022-11-02T15:48:38;24.15;;;15.07;;
21761;SDS011;11203;50.870;20.682;2022-11-02T15:51:38;24.98;;;14.50;;
21761;SDS011;11203;50.870;20.682;2022-11-02T16:02:26;35.60;;;22.60;;
21761;SDS011;11203;50.870;20.682;2022-11-02T16:04:59;32.47;;;19.35;;
21761;SDS011;11203;50.870;20.682;2022-11-02T16:07:27;17.02;;;9.98;;
21761;SDS011;11203;50.870;20.682;2022-11-02T16:10:08;18.00;;;12.02;;
21761;SDS011;11203;50.870;20.682;2022-11-02T16:13:10;27.20;;;14.27;;
21761;SDS011;11203;50.870;20.682;2022-11-02T16:15:41;28.45;;;17.60;;
21761;SDS011;11203;50.870;20.682;2022-11-02T16:21:19;35.55;;;19.63;;
21761;SDS011;11203;50.870;20.682;2022-11-02T16:23:47;37.70;;;22.48;;
21761;SDS011;11203;50.870;20.682;2022-11-02T16:26:18;42.42;;;25.63;;
21761;SDS011;11203;50.870;20.682;2022-11-02T16:28:49;38.80;;;23.25;;
21761;SDS011;11203;50.870;20.682;2022-11-02T16:31:25;33.00;;;23.33;;
21761;SDS011;11203;50.870;20.682;2022-11-02T16:33:59;30.88;;;22.25;;
21761;SDS011;11203;50.870;20.682;2022-11-02T16:36:45;35.03;;;23.75;;
21761;SDS011;11203;50.870;20.682;2022-11-02T16:41:38;60.65;;;36.30;;
21761;SDS011;11203;50.870;20.682;2022-11-02T16:44:09;62.10;;;37.60;;
21761;SDS011;11203;50.870;20.682;2022-11-02T16:52:26;481.27;;;291.23;;
21761;SDS011;11203;50.870;20.682;2022-11-02T16:55:01;1010.10;;;576.45;;
21761;SDS011;11203;50.870;20.682;2022-11-02T16:58:26;540.05;;;281.63;;
21761;SDS011;11203;50.870;20.682;2022-11-02T17:00:54;531.63;;;286.50;;
21761;SDS011;11203;50.870;20.682;2022-11-02T17:03:24;213.43;;;125.75;;
21761;SDS011;11203;50.870;20.682;2022-11-02T17:05:55;139.27;;;83.63;;
21761;SDS011;11203;50.870;20.682;2022-11-02T17:08:34;143.18;;;84.05;;
21761;SDS011;11203;50.870;20.682;2022-11-02T17:11:03;173.80;;;77.93;;
21761;SDS011;11203;50.870;20.682;2022-11-02T17:13:31;224.73;;;112.75;;
21761;SDS011;11203;50.870;20.682;2022-11-02T17:16:03;181.98;;;108.97;;
21761;SDS011;11203;50.870;20.682;2022-11-02T17:18:33;158.23;;;84.10;;
21761;SDS011;11203;50.870;20.682;2022-11-02T17:21:34;130.60;;;67.65;;
21761;SDS011;11203;50.870;20.682;2022-11-02T17:23:54;122.32;;;62.40;;
21761;SDS011;11203;50.870;20.682;2022-11-02T17:28:55;125.40;;;80.10;;
21761;SDS011;11203;50.870;20.682;2022-11-02T17:31:58;209.20;;;94.93;;
21761;SDS011;11203;50.870;20.682;2022-11-02T17:34:25;124.07;;;63.45;;
21761;SDS011;11203;50.870;20.682;2022-11-02T17:36:52;82.15;;;49.20;;
21761;SDS011;11203;50.870;20.682;2022-11-02T17:39:19;88.90;;;48.05;;
21761;SDS011;11203;50.870;20.682;2022-11-02T17:41:48;86.22;;;50.22;;
21761;SDS011;11203;50.870;20.682;2022-11-02T17:44:39;92.00;;;48.33;;
21761;SDS011;11203;50.870;20.682;2022-11-02T17:47:10;110.80;;;57.55;;
21761;SDS011;11203;50.870;20.682;2022-11-02T17:49:37;103.25;;;54.28;;
21761;SDS011;11203;50.870;20.682;2022-11-02T17:52:03;80.57;;;47.95;;
21761;SDS011;11203;50.870;20.682;2022-11-02T17:54:29;115.43;;;60.70;;
21761;SDS011;11203;50.870;20.682;2022-11-02T17:56:55;93.57;;;52.72;;
21761;SDS011;11203;50.870;20.682;2022-11-02T17:59:21;91.20;;;51.72;;
21761;SDS011;11203;50.870;20.682;2022-11-02T18:01:48;95.00;;;54.90;;
21761;SDS011;11203;50.870;20.682;2022-11-02T18:04:13;84.82;;;52.78;;
21761;SDS011;11203;50.870;20.682;2022-11-02T18:06:40;99.35;;;61.45;;
21761;SDS011;11203;50.870;20.682;2022-11-02T18:09:06;163.82;;;81.63;;
21761;SDS011;11203;50.870;20.682;2022-11-02T18:11:48;168.00;;;82.95;;
21761;SDS011;11203;50.870;20.682;2022-11-02T18:14:14;217.00;;;99.57;;
21761;SDS011;11203;50.870;20.682;2022-11-02T18:16:41;173.23;;;87.70;;
21761;SDS011;11203;50.870;20.682;2022-11-02T18:19:08;180.20;;;89.88;;
21761;SDS011;11203;50.870;20.682;2022-11-02T18:21:34;152.35;;;79.82;;